TAR135 DTTA-DTTX
Flight info
| Callsign | TAR135 |
|---|---|
| Flight time | 0h 32m |
| Altitude | 15000 |
| Route | GIBLI2C GIBLI A411 ELJEM/N0348F140 DCT FS15 |
| Aircraft | A20N/M-SDE2E3FGHIRWXY/LB1 |
Departure
| Time | 2026-04-28 21:29 |
|---|---|
| Airport | Tunis Carthage International Airport (DTTA) |
Arrival
| Time | 2026-04-28 22:01 |
|---|---|
| Airport | Sfax Thyna International Airport (DTTX) |
| Time | Latitude | Longitude | Altitude | Speed | Heading |
|---|---|---|---|---|---|
| 2026-04-28 21:04 | 36.84586 | 10.22001 | 20 ft | 0 kts | 296° |
| 2026-04-28 21:08 | 36.84638 | 10.21992 | 21 ft | 0 kts | 247° |
| 2026-04-28 21:19 | 36.84639 | 10.21992 | 21 ft | 1 kts | 245° |
| 2026-04-28 21:20 | 36.84640 | 10.22007 | 21 ft | 2 kts | 268° |
| 2026-04-28 21:20 | 36.84642 | 10.22024 | 21 ft | 2 kts | 259° |
| 2026-04-28 21:20 | 36.84644 | 10.22040 | 20 ft | 2 kts | 262° |
| 2026-04-28 21:20 | 36.84646 | 10.22057 | 19 ft | 2 kts | 261° |
| 2026-04-28 21:21 | 36.84648 | 10.22074 | 19 ft | 2 kts | 262° |
| 2026-04-28 21:21 | 36.84650 | 10.22091 | 18 ft | 2 kts | 261° |
| 2026-04-28 21:21 | 36.84652 | 10.22105 | 18 ft | 0 kts | 262° |
| 2026-04-28 21:21 | 36.84652 | 10.22111 | 17 ft | 0 kts | 224° |
| 2026-04-28 21:22 | 36.84655 | 10.22114 | 17 ft | 0 kts | 187° |
| 2026-04-28 21:22 | 36.84660 | 10.22115 | 17 ft | 0 kts | 192° |
| 2026-04-28 21:24 | 36.84659 | 10.22114 | 17 ft | 0 kts | 192° |
| 2026-04-28 21:24 | 36.84646 | 10.22111 | 17 ft | 3 kts | 192° |
| 2026-04-28 21:25 | 36.84591 | 10.22095 | 18 ft | 13 kts | 193° |
| 2026-04-28 21:25 | 36.84501 | 10.22148 | 15 ft | 12 kts | 107° |
| 2026-04-28 21:25 | 36.84547 | 10.22270 | 13 ft | 22 kts | 15° |
| 2026-04-28 21:25 | 36.84781 | 10.22336 | 14 ft | 32 kts | 12° |
| 2026-04-28 21:26 | 36.84920 | 10.22373 | 14 ft | 0 kts | 12° |
| 2026-04-28 21:26 | 36.84959 | 10.22382 | 14 ft | 13 kts | 11° |
| 2026-04-28 21:27 | 36.85098 | 10.22421 | 17 ft | 27 kts | 13° |
| 2026-04-28 21:27 | 36.85206 | 10.22312 | 18 ft | 31 kts | 249° |
| 2026-04-28 21:27 | 36.85227 | 10.22161 | 18 ft | 18 kts | 41° |
| 2026-04-28 21:27 | 36.85266 | 10.22195 | 18 ft | 6 kts | 10° |
| 2026-04-28 21:28 | 36.85248 | 10.22304 | 18 ft | 21 kts | 112° |
| 2026-04-28 21:28 | 36.85110 | 10.22721 | 15 ft | 88 kts | 112° |
| 2026-04-28 21:28 | 36.84788 | 10.23684 | 12 ft | 148 kts | 112° |
| 2026-04-28 21:28 | 36.84345 | 10.25013 | 328 ft | 172 kts | 113° |
| 2026-04-28 21:29 | 36.83874 | 10.26355 | 992 ft | 172 kts | 115° |
| 2026-04-28 21:29 | 36.83347 | 10.27700 | 1686 ft | 176 kts | 118° |
| 2026-04-28 21:29 | 36.82718 | 10.28986 | 2335 ft | 181 kts | 120° |
| 2026-04-28 21:29 | 36.81768 | 10.30144 | 2660 ft | 209 kts | 155° |
| 2026-04-28 21:30 | 36.80284 | 10.30321 | 3158 ft | 229 kts | 185° |
| 2026-04-28 21:30 | 36.78693 | 10.29946 | 3792 ft | 240 kts | 191° |
| 2026-04-28 21:30 | 36.77054 | 10.29476 | 4463 ft | 248 kts | 191° |
| 2026-04-28 21:30 | 36.75413 | 10.29017 | 5288 ft | 248 kts | 189° |
| 2026-04-28 21:31 | 36.73705 | 10.28809 | 5943 ft | 254 kts | 169° |
| 2026-04-28 21:31 | 36.71979 | 10.29396 | 6428 ft | 268 kts | 156° |
| 2026-04-28 21:31 | 36.70209 | 10.30298 | 6943 ft | 284 kts | 154° |
| 2026-04-28 21:31 | 36.68384 | 10.31248 | 7704 ft | 290 kts | 155° |
| 2026-04-28 21:32 | 36.66518 | 10.32194 | 8480 ft | 296 kts | 156° |
| 2026-04-28 21:32 | 36.64601 | 10.33126 | 9217 ft | 303 kts | 156° |
| 2026-04-28 21:32 | 36.62637 | 10.34056 | 10009 ft | 307 kts | 158° |
| 2026-04-28 21:32 | 36.60630 | 10.34997 | 10638 ft | 317 kts | 159° |
| 2026-04-28 21:33 | 36.58506 | 10.35982 | 11033 ft | 336 kts | 159° |
| 2026-04-28 21:33 | 36.56253 | 10.37020 | 11398 ft | 354 kts | 159° |
| 2026-04-28 21:33 | 36.53917 | 10.38092 | 11724 ft | 372 kts | 160° |
| 2026-04-28 21:33 | 36.51454 | 10.39225 | 12027 ft | 389 kts | 160° |
| 2026-04-28 21:34 | 36.48889 | 10.40405 | 12338 ft | 405 kts | 160° |
| 2026-04-28 21:34 | 36.46230 | 10.41627 | 12888 ft | 412 kts | 160° |
| 2026-04-28 21:34 | 36.43538 | 10.42865 | 13585 ft | 415 kts | 160° |
| 2026-04-28 21:34 | 36.43415 | 10.42922 | 13616 ft | 415 kts | 160° |
| 2026-04-28 21:35 | 36.41601 | 10.43755 | 14061 ft | 418 kts | 160° |
| 2026-04-28 21:35 | 36.38869 | 10.45009 | 14644 ft | 423 kts | 160° |
| 2026-04-28 21:36 | 36.36136 | 10.46292 | 14949 ft | 425 kts | 159° |
| 2026-04-28 21:36 | 36.33367 | 10.47629 | 14993 ft | 425 kts | 159° |
| 2026-04-28 21:36 | 36.30656 | 10.48945 | 15002 ft | 425 kts | 159° |
| 2026-04-28 21:36 | 36.27909 | 10.50272 | 15007 ft | 425 kts | 159° |
| 2026-04-28 21:37 | 36.25133 | 10.51593 | 15010 ft | 424 kts | 159° |
| 2026-04-28 21:37 | 36.24554 | 10.51867 | 15011 ft | 424 kts | 159° |
| 2026-04-28 21:37 | 36.22058 | 10.53043 | 15012 ft | 425 kts | 159° |
| 2026-04-28 21:38 | 36.20929 | 10.53573 | 15013 ft | 424 kts | 159° |
| 2026-04-28 21:38 | 36.18154 | 10.54873 | 15014 ft | 424 kts | 159° |
| 2026-04-28 21:38 | 36.15392 | 10.56167 | 15015 ft | 424 kts | 159° |
| 2026-04-28 21:38 | 36.12653 | 10.57451 | 15015 ft | 425 kts | 159° |
| 2026-04-28 21:39 | 36.09903 | 10.58741 | 15015 ft | 425 kts | 159° |
| 2026-04-28 21:39 | 36.07167 | 10.60024 | 15015 ft | 425 kts | 159° |
| 2026-04-28 21:39 | 36.04395 | 10.61324 | 15015 ft | 425 kts | 159° |
| 2026-04-28 21:39 | 36.01701 | 10.62586 | 15015 ft | 425 kts | 159° |
| 2026-04-28 21:40 | 35.98942 | 10.63878 | 15015 ft | 425 kts | 159° |
| 2026-04-28 21:40 | 35.96193 | 10.65165 | 15015 ft | 425 kts | 160° |
| 2026-04-28 21:40 | 35.93446 | 10.66461 | 15015 ft | 425 kts | 159° |
| 2026-04-28 21:40 | 35.90722 | 10.67747 | 15015 ft | 425 kts | 160° |
| 2026-04-28 21:41 | 35.87963 | 10.69041 | 15014 ft | 425 kts | 160° |
| 2026-04-28 21:41 | 35.85244 | 10.70306 | 15015 ft | 425 kts | 160° |
| 2026-04-28 21:41 | 35.82515 | 10.71575 | 15015 ft | 425 kts | 160° |
| 2026-04-28 21:41 | 35.79743 | 10.72863 | 15015 ft | 425 kts | 160° |
| 2026-04-28 21:42 | 35.76978 | 10.73993 | 15012 ft | 424 kts | 167° |
| 2026-04-28 21:42 | 35.74109 | 10.74619 | 15005 ft | 422 kts | 176° |
| 2026-04-28 21:42 | 35.71196 | 10.74718 | 14700 ft | 414 kts | 183° |
| 2026-04-28 21:42 | 35.68317 | 10.74595 | 14050 ft | 413 kts | 184° |
| 2026-04-28 21:43 | 35.65496 | 10.74429 | 13753 ft | 401 kts | 185° |
| 2026-04-28 21:43 | 35.62774 | 10.74262 | 13534 ft | 389 kts | 185° |
| 2026-04-28 21:43 | 35.60104 | 10.74099 | 13323 ft | 377 kts | 185° |
| 2026-04-28 21:43 | 35.57552 | 10.73945 | 13123 ft | 365 kts | 185° |
| 2026-04-28 21:44 | 35.55046 | 10.73795 | 12927 ft | 355 kts | 185° |
| 2026-04-28 21:44 | 35.52640 | 10.73653 | 12741 ft | 344 kts | 185° |
| 2026-04-28 21:44 | 35.50275 | 10.73513 | 12557 ft | 334 kts | 185° |
| 2026-04-28 21:44 | 35.48010 | 10.73380 | 12382 ft | 325 kts | 185° |
| 2026-04-28 21:45 | 35.45796 | 10.73250 | 12208 ft | 316 kts | 185° |
| 2026-04-28 21:45 | 35.43641 | 10.73124 | 12039 ft | 307 kts | 185° |
| 2026-04-28 21:45 | 35.41535 | 10.73000 | 11871 ft | 298 kts | 185° |
| 2026-04-28 21:45 | 35.39515 | 10.72881 | 11708 ft | 289 kts | 185° |
| 2026-04-28 21:46 | 35.37534 | 10.72765 | 11546 ft | 281 kts | 185° |
| 2026-04-28 21:46 | 35.35622 | 10.72652 | 11366 ft | 274 kts | 185° |
| 2026-04-28 21:46 | 35.33742 | 10.72541 | 11094 ft | 271 kts | 185° |
| 2026-04-28 21:46 | 35.31859 | 10.72429 | 11033 ft | 270 kts | 185° |
| 2026-04-28 21:47 | 35.30009 | 10.72321 | 10894 ft | 268 kts | 185° |
| 2026-04-28 21:47 | 35.28142 | 10.72210 | 10524 ft | 269 kts | 184° |
| 2026-04-28 21:47 | 35.26282 | 10.72099 | 10189 ft | 269 kts | 184° |
| 2026-04-28 21:47 | 35.24432 | 10.71990 | 9885 ft | 268 kts | 184° |
| 2026-04-28 21:48 | 35.22584 | 10.71881 | 9581 ft | 267 kts | 184° |
| 2026-04-28 21:48 | 35.20746 | 10.71774 | 9278 ft | 265 kts | 183° |
| 2026-04-28 21:48 | 35.18901 | 10.71666 | 8974 ft | 264 kts | 183° |
| 2026-04-28 21:48 | 35.17076 | 10.71560 | 8674 ft | 263 kts | 183° |
| 2026-04-28 21:49 | 35.15272 | 10.71454 | 8378 ft | 261 kts | 183° |
| 2026-04-28 21:49 | 35.13470 | 10.71349 | 8090 ft | 260 kts | 182° |
| 2026-04-28 21:49 | 35.11671 | 10.71244 | 8006 ft | 258 kts | 182° |
| 2026-04-28 21:49 | 35.09898 | 10.71142 | 7969 ft | 257 kts | 182° |
| 2026-04-28 21:50 | 35.08137 | 10.71040 | 7695 ft | 256 kts | 182° |
| 2026-04-28 21:50 | 35.06360 | 10.70936 | 7362 ft | 256 kts | 182° |
| 2026-04-28 21:50 | 35.04565 | 10.70830 | 7067 ft | 255 kts | 182° |
| 2026-04-28 21:50 | 35.02807 | 10.70728 | 6781 ft | 253 kts | 182° |
| 2026-04-28 21:51 | 35.01067 | 10.70626 | 6493 ft | 252 kts | 181° |
| 2026-04-28 21:51 | 34.99321 | 10.70525 | 6204 ft | 251 kts | 181° |
| 2026-04-28 21:51 | 34.97591 | 10.70425 | 5919 ft | 249 kts | 181° |
| 2026-04-28 21:51 | 34.95889 | 10.70326 | 5638 ft | 248 kts | 181° |
| 2026-04-28 21:52 | 34.94161 | 10.70226 | 5354 ft | 246 kts | 181° |
| 2026-04-28 21:52 | 34.92466 | 10.70127 | 5075 ft | 245 kts | 181° |
| 2026-04-28 21:52 | 34.90778 | 10.70030 | 4796 ft | 243 kts | 181° |
| 2026-04-28 21:52 | 34.89125 | 10.69934 | 4525 ft | 242 kts | 181° |
| 2026-04-28 21:53 | 34.87463 | 10.69839 | 4246 ft | 240 kts | 181° |
| 2026-04-28 21:53 | 34.85807 | 10.69743 | 3972 ft | 238 kts | 180° |
| 2026-04-28 21:53 | 34.84148 | 10.69647 | 3695 ft | 237 kts | 180° |
| 2026-04-28 21:53 | 34.82538 | 10.69554 | 3425 ft | 235 kts | 180° |
| 2026-04-28 21:54 | 34.80935 | 10.69461 | 3157 ft | 234 kts | 180° |
| 2026-04-28 21:54 | 34.79316 | 10.69368 | 2886 ft | 232 kts | 180° |
| 2026-04-28 21:54 | 34.77744 | 10.69036 | 2597 ft | 234 kts | 202° |
| 2026-04-28 21:54 | 34.76446 | 10.67921 | 2322 ft | 234 kts | 230° |
| 2026-04-28 21:55 | 34.75697 | 10.66212 | 2043 ft | 232 kts | 258° |
| 2026-04-28 21:55 | 34.75653 | 10.64273 | 1766 ft | 228 kts | 285° |
| 2026-04-28 21:55 | 34.76292 | 10.62567 | 1705 ft | 224 kts | 310° |
| 2026-04-28 21:55 | 34.77307 | 10.61177 | 1690 ft | 210 kts | 317° |
| 2026-04-28 21:56 | 34.78317 | 10.59932 | 1704 ft | 206 kts | 317° |
| 2026-04-28 21:56 | 34.79262 | 10.58752 | 1751 ft | 188 kts | 317° |
| 2026-04-28 21:56 | 34.80215 | 10.57804 | 1664 ft | 164 kts | 339° |
| 2026-04-28 21:56 | 34.81242 | 10.57554 | 1685 ft | 151 kts | 7° |
| 2026-04-28 21:57 | 34.82236 | 10.57929 | 1689 ft | 148 kts | 34° |
| 2026-04-28 21:57 | 34.82950 | 10.58791 | 1688 ft | 147 kts | 59° |
| 2026-04-28 21:57 | 34.83265 | 10.59966 | 1680 ft | 148 kts | 90° |
| 2026-04-28 21:57 | 34.82863 | 10.61065 | 1676 ft | 153 kts | 136° |
| 2026-04-28 21:58 | 34.81987 | 10.61728 | 1693 ft | 145 kts | 150° |
| 2026-04-28 21:58 | 34.81094 | 10.62250 | 1688 ft | 143 kts | 150° |
| 2026-04-28 21:58 | 34.80203 | 10.62794 | 1689 ft | 142 kts | 149° |
| 2026-04-28 21:58 | 34.79340 | 10.63372 | 1602 ft | 142 kts | 146° |
| 2026-04-28 21:59 | 34.78502 | 10.63992 | 1405 ft | 141 kts | 144° |
| 2026-04-28 21:59 | 34.77678 | 10.64622 | 1218 ft | 140 kts | 144° |
| 2026-04-28 21:59 | 34.76860 | 10.65247 | 1037 ft | 140 kts | 145° |
| 2026-04-28 22:00 | 34.75204 | 10.66501 | 658 ft | 140 kts | 146° |
| 2026-04-28 22:00 | 34.74378 | 10.67126 | 479 ft | 140 kts | 146° |
| 2026-04-28 22:00 | 34.73552 | 10.67718 | 313 ft | 139 kts | 147° |
| 2026-04-28 22:00 | 34.72725 | 10.68337 | 115 ft | 140 kts | 148° |
| 2026-04-28 22:01 | 34.71959 | 10.68939 | 67 ft | 121 kts | 146° |
| 2026-04-28 22:01 | 34.71451 | 10.69316 | 61 ft | 41 kts | 148° |
| 2026-04-28 22:01 | 34.71271 | 10.69450 | 61 ft | 28 kts | 149° |
| 2026-04-28 22:01 | 34.71108 | 10.69569 | 60 ft | 27 kts | 148° |
| 2026-04-28 22:02 | 34.70943 | 10.69693 | 57 ft | 27 kts | 148° |
| 2026-04-28 22:02 | 34.70871 | 10.69781 | 55 ft | 10 kts | 216° |
| 2026-04-28 22:02 | 34.70905 | 10.69727 | 57 ft | 10 kts | 324° |
| 2026-04-28 22:02 | 34.70970 | 10.69674 | 58 ft | 13 kts | 329° |
| 2026-04-28 22:03 | 34.71069 | 10.69600 | 59 ft | 19 kts | 328° |
| 2026-04-28 22:03 | 34.71198 | 10.69502 | 61 ft | 24 kts | 328° |
| 2026-04-28 22:03 | 34.71356 | 10.69382 | 61 ft | 29 kts | 328° |
| 2026-04-28 22:03 | 34.71538 | 10.69244 | 63 ft | 32 kts | 329° |
| 2026-04-28 22:04 | 34.71737 | 10.69094 | 64 ft | 35 kts | 328° |
| 2026-04-28 22:04 | 34.71950 | 10.68934 | 66 ft | 35 kts | 328° |
| 2026-04-28 22:04 | 34.72065 | 10.68881 | 68 ft | 12 kts | 19° |
| 2026-04-28 22:04 | 34.72120 | 10.68966 | 67 ft | 13 kts | 57° |
| 2026-04-28 22:05 | 34.72168 | 10.69054 | 68 ft | 11 kts | 34° |
| 2026-04-28 22:05 | 34.72212 | 10.69055 | 70 ft | 1 kts | 360° |
| 2026-04-28 22:05 | 34.72219 | 10.69058 | 70 ft | 1 kts | 21° |
| 2026-04-28 22:05 | 34.72239 | 10.69072 | 71 ft | 3 kts | 51° |
| 2026-04-28 22:06 | 34.72257 | 10.69099 | 69 ft | 0 kts | 50° |
| 2026-04-28 22:07 | 34.72257 | 10.69100 | 69 ft | 0 kts | 54° |